Time;durP1;ratioP1;P1;durP2;ratioP2;P2;SDS_P1;SDS_P2;PMS_P1;PMS_P2;Temp;Humidity;BMP_temperature;BMP_pressure;BME280_temperature;BME280_humidity;BME280_pressure;Samples;Min_cycle;Max_cycle;Signal;HPM_P1;HPM_P2
2021/07/30 00:01:42;;;;;;;3.08;2.15;;;35.30;84.40;;;;;;6248211;23;20199;-91
2021/07/30 00:04:14;;;;;;;3.17;2.08;;;35.40;84.30;;;;;;6249655;23;20223;-91
2021/07/30 00:06:45;;;;;;;2.63;2.10;;;35.30;82.60;;;;;;6249548;23;20172;-92
2021/07/30 00:09:16;;;;;;;4.28;2.00;;;35.30;82.60;;;;;;6267092;22;20191;-91
2021/07/30 00:11:49;;;;;;;2.70;2.20;;;35.00;82.20;;;;;;6273416;22;20208;-94
2021/07/30 00:14:20;;;;;;;2.75;2.10;;;35.10;82.00;;;;;;6274851;22;20186;-91
2021/07/30 00:16:52;;;;;;;3.63;2.30;;;35.10;83.40;;;;;;6262197;23;20183;-91
2021/07/30 00:19:22;;;;;;;4.72;3.10;;;34.90;82.20;;;;;;6251443;23;20194;-92
2021/07/30 00:21:53;;;;;;;3.75;1.90;;;34.80;81.40;;;;;;6249606;23;20634;-91
2021/07/30 00:24:25;;;;;;;3.58;2.22;;;34.90;82.10;;;;;;6250161;23;20195;-92
2021/07/30 00:26:59;;;;;;;3.17;2.03;;;34.90;81.40;;;;;;6225429;23;20179;-91
2021/07/30 00:29:29;;;;;;;3.28;2.15;;;34.90;83.10;;;;;;6251326;23;20183;-91
2021/07/30 00:32:01;;;;;;;5.50;2.40;;;34.90;83.70;;;;;;6247559;23;20223;-91
2021/07/30 00:34:32;;;;;;;2.08;1.88;;;34.90;85.20;;;;;;6223783;23;20620;-91
2021/07/30 00:37:03;;;;;;;2.53;2.30;;;34.80;85.00;;;;;;6248594;23;20547;-90
2021/07/30 00:39:34;;;;;;;3.53;2.03;;;34.60;84.60;;;;;;6248608;23;20182;-91
2021/07/30 00:42:08;;;;;;;2.95;1.88;;;34.40;83.10;;;;;;6247381;23;20677;-91
2021/07/30 00:44:39;;;;;;;2.60;2.00;;;34.30;81.30;;;;;;6249266;23;20175;-91
2021/07/30 00:47:11;;;;;;;2.63;2.20;;;34.20;81.00;;;;;;6248384;23;20176;-91
2021/07/30 00:49:42;;;;;;;2.28;2.05;;;34.10;81.00;;;;;;6251533;23;20519;-92
2021/07/30 00:52:14;;;;;;;3.33;2.33;;;34.00;81.40;;;;;;6249121;23;20559;-91
2021/07/30 00:54:45;;;;;;;2.03;1.83;;;34.00;81.60;;;;;;6253832;23;20216;-90
2021/07/30 00:57:19;;;;;;;2.90;1.90;;;33.90;82.10;;;;;;6223879;23;20180;-91
2021/07/30 00:59:51;;;;;;;4.88;2.10;;;33.80;81.10;;;;;;6248961;23;20184;-92
2021/07/30 01:02:24;;;;;;;2.30;1.88;;;33.70;81.00;;;;;;6220835;23;20202;-92
2021/07/30 01:04:55;;;;;;;2.03;1.77;;;33.60;81.10;;;;;;6249764;23;20179;-91
2021/07/30 01:07:27;;;;;;;4.30;2.30;;;33.60;80.80;;;;;;6248758;23;20180;-92
2021/07/30 01:09:59;;;;;;;3.90;2.03;;;33.60;81.80;;;;;;6249968;23;20215;-91
2021/07/30 01:12:32;;;;;;;2.25;1.95;;;33.90;80.70;;;;;;6247102;23;20196;-92
2021/07/30 01:15:05;;;;;;;2.60;2.00;;;34.20;80.80;;;;;;6248215;23;20679;-91
2021/07/30 01:17:36;;;;;;;4.03;2.13;;;34.80;79.20;;;;;;6247370;23;20183;-91
2021/07/30 01:20:09;;;;;;;2.33;1.98;;;35.10;78.80;;;;;;6248106;23;20256;-91
2021/07/30 01:22:51;;;;;;;3.42;2.00;;;35.40;79.90;;;;;;6246897;23;20180;-92
2021/07/30 01:25:23;;;;;;;5.15;2.10;;;35.60;78.50;;;;;;6248607;23;20201;-92
2021/07/30 01:27:54;;;;;;;2.47;2.00;;;35.50;78.70;;;;;;6248132;23;20242;-92
2021/07/30 01:30:26;;;;;;;4.55;2.45;;;35.90;78.00;;;;;;6248247;23;20200;-92
2021/07/30 01:32:57;;;;;;;4.20;2.17;;;36.10;77.90;;;;;;6246840;23;20211;-92
2021/07/30 01:35:28;;;;;;;2.72;2.25;;;36.30;77.10;;;;;;6249094;23;20191;-91
2021/07/30 01:38:04;;;;;;;3.85;2.10;;;36.20;76.50;;;;;;6249556;23;20194;-92
2021/07/30 01:40:35;;;;;;;2.15;1.88;;;35.90;77.70;;;;;;6251026;23;20172;-93
2021/07/30 01:43:06;;;;;;;2.35;2.00;;;35.70;76.70;;;;;;6252943;23;20190;-92
2021/07/30 01:45:38;;;;;;;4.40;1.75;;;35.70;77.30;;;;;;6252227;23;20175;-92
2021/07/30 01:48:08;;;;;;;2.00;1.90;;;35.80;76.30;;;;;;6250915;23;20168;-91
2021/07/30 01:50:39;;;;;;;2.08;1.83;;;36.00;76.10;;;;;;6250573;23;20176;-91
2021/07/30 01:53:12;;;;;;;2.28;1.80;;;35.70;77.20;;;;;;6250072;23;20204;-91
2021/07/30 01:55:44;;;;;;;1.88;1.75;;;35.80;77.50;;;;;;6250725;23;20191;-92
2021/07/30 01:58:15;;;;;;;5.80;2.35;;;35.80;76.90;;;;;;6223474;23;20646;-92
2021/07/30 02:00:47;;;;;;;3.15;2.00;;;35.60;77.20;;;;;;6248828;23;20176;-93
2021/07/30 02:03:18;;;;;;;3.58;1.92;;;35.60;76.00;;;;;;6246871;23;20487;-93
2021/07/30 02:05:51;;;;;;;3.45;2.20;;;35.50;77.70;;;;;;6247844;23;20234;-92
2021/07/30 02:08:23;;;;;;;2.95;2.17;;;35.30;77.20;;;;;;6250117;23;20204;-92
2021/07/30 02:10:55;;;;;;;3.75;2.10;;;34.80;78.60;;;;;;6247523;23;20212;-93
2021/07/30 02:16:26;;;;;;;3.95;2.35;;;33.00;79.00;;;;;;6157149;23;20205;-92
2021/07/30 02:18:57;;;;;;;2.38;2.00;;;31.90;81.20;;;;;;6232448;23;20258;-92
2021/07/30 02:21:29;;;;;;;5.40;2.00;;;31.50;82.10;;;;;;6223826;23;20207;-92
2021/07/30 02:24:01;;;;;;;4.07;2.08;;;31.10;82.70;;;;;;6254025;23;20302;-91
2021/07/30 02:26:35;;;;;;;3.72;1.90;;;30.70;83.50;;;;;;6251258;23;20182;-91
2021/07/30 02:29:07;;;;;;;3.67;2.03;;;30.30;84.70;;;;;;6229189;23;20187;-91
2021/07/30 02:31:38;;;;;;;3.93;2.20;;;30.10;85.60;;;;;;6263316;23;20211;-93
2021/07/30 02:34:10;;;;;;;5.20;1.73;;;29.90;86.30;;;;;;6272089;22;20231;-91
2021/07/30 02:36:44;;;;;;;3.83;2.00;;;29.70;86.40;;;;;;6269854;22;20175;-91
2021/07/30 02:39:17;;;;;;;3.10;2.50;;;29.50;87.40;;;;;;6263695;23;20202;-92
2021/07/30 02:41:48;;;;;;;6.60;2.00;;;29.30;87.90;;;;;;6270798;22;20177;-93
2021/07/30 02:44:20;;;;;;;3.60;2.10;;;29.10;88.40;;;;;;6268072;22;20228;-92
2021/07/30 02:46:52;;;;;;;3.53;2.20;;;29.00;88.50;;;;;;6260931;23;20511;-92
2021/07/30 02:49:23;;;;;;;4.93;2.10;;;28.80;89.00;;;;;;6248122;23;20615;-92
2021/07/30 02:51:54;;;;;;;3.97;2.23;;;28.70;89.30;;;;;;6247802;23;20223;-92
2021/07/30 02:54:27;;;;;;;3.30;2.17;;;28.50;90.20;;;;;;6247371;23;20206;-92
2021/07/30 02:56:58;;;;;;;3.27;1.80;;;28.40;90.50;;;;;;6247056;23;20611;-93
2021/07/30 02:59:33;;;;;;;3.37;2.30;;;28.20;90.90;;;;;;6247730;23;20637;-92
2021/07/30 03:02:04;;;;;;;6.33;2.40;;;28.10;91.20;;;;;;6246667;23;20293;-92
2021/07/30 03:04:36;;;;;;;4.80;2.00;;;27.90;91.60;;;;;;6249053;23;20198;-93
2021/07/30 03:07:07;;;;;;;3.40;2.10;;;27.60;92.10;;;;;;6248252;23;20183;-92
2021/07/30 03:09:40;;;;;;;5.13;2.50;;;27.40;92.70;;;;;;6247817;23;20179;-92
2021/07/30 03:12:11;;;;;;;4.30;2.27;;;27.10;93.90;;;;;;6222869;23;20573;-91
2021/07/30 03:14:42;;;;;;;3.70;1.83;;;26.90;94.70;;;;;;6249353;23;20614;-91
2021/07/30 03:17:13;;;;;;;4.87;2.20;;;26.50;94.30;;;;;;6247950;23;20194;-91
2021/07/30 03:19:44;;;;;;;3.43;1.83;;;26.20;95.90;;;;;;6249710;23;20202;-91
2021/07/30 03:22:15;;;;;;;2.47;1.70;;;26.10;95.10;;;;;;6250594;23;20218;-92
2021/07/30 03:24:48;;;;;;;3.57;1.70;;;25.90;95.50;;;;;;6224229;23;20217;-92
2021/07/30 03:27:22;;;;;;;2.73;1.87;;;25.80;96.30;;;;;;6249382;23;20180;-92
2021/07/30 03:29:53;;;;;;;2.97;1.80;;;25.60;95.70;;;;;;6250265;23;20168;-91
2021/07/30 03:32:24;;;;;;;2.50;1.67;;;25.50;96.30;;;;;;6247793;23;20200;-91
2021/07/30 03:34:54;;;;;;;4.10;1.70;;;25.30;96.70;;;;;;6250850;23;20175;-92
2021/07/30 03:37:26;;;;;;;4.30;1.60;;;25.20;96.30;;;;;;6250307;23;20195;-92
2021/07/30 03:39:59;;;;;;;2.23;1.60;;;25.10;96.60;;;;;;6251402;23;20175;-91
2021/07/30 03:42:31;;;;;;;2.73;1.40;;;25.00;96.90;;;;;;6254916;22;20183;-91
2021/07/30 03:45:06;;;;;;;3.83;1.50;;;24.90;96.90;;;;;;6268590;23;20214;-90
2021/07/30 03:47:37;;;;;;;2.43;1.40;;;24.80;98.10;;;;;;6271055;22;20186;-89
2021/07/30 03:50:09;;;;;;;3.40;1.80;;;24.70;97.70;;;;;;6268987;23;20187;-91
2021/07/30 03:52:40;;;;;;;4.23;1.47;;;24.60;97.50;;;;;;6254465;23;20207;-92
2021/07/30 03:55:12;;;;;;;1.70;1.20;;;24.50;97.90;;;;;;6256429;23;20175;-91
2021/07/30 03:57:43;;;;;;;4.03;1.70;;;24.30;98.10;;;;;;6257082;23;20220;-91
2021/07/30 04:00:16;;;;;;;2.73;1.60;;;24.30;98.30;;;;;;6231338;23;20176;-92
2021/07/30 04:02:47;;;;;;;2.60;1.20;;;24.20;99.00;;;;;;6256222;23;20160;-91
2021/07/30 04:05:18;;;;;;;3.87;1.90;;;24.10;98.90;;;;;;6254695;23;20206;-92
2021/07/30 04:07:49;;;;;;;2.00;1.43;;;24.00;99.40;;;;;;6249376;23;20227;-91
2021/07/30 04:10:22;;;;;;;1.73;1.13;;;23.90;99.80;;;;;;6247728;23;20237;-92
2021/07/30 04:12:53;;;;;;;3.30;1.30;;;23.80;99.90;;;;;;6248226;23;20546;-91
2021/07/30 04:15:25;;;;;;;2.83;1.50;;;23.70;99.70;;;;;;6250830;23;20172;-91
2021/07/30 04:17:56;;;;;;;4.03;1.67;;;23.60;99.90;;;;;;6250924;23;20199;-91
2021/07/30 04:20:27;;;;;;;2.80;1.40;;;23.50;99.90;;;;;;6248846;23;20183;-91
2021/07/30 04:22:58;;;;;;;3.93;1.33;;;23.50;99.90;;;;;;6246615;23;20554;-91
2021/07/30 04:25:31;;;;;;;2.00;1.20;;;23.30;99.90;;;;;;6247606;23;20255;-91
2021/07/30 04:28:02;;;;;;;2.63;1.40;;;23.20;99.90;;;;;;6247534;23;20196;-91
2021/07/30 04:30:33;;;;;;;2.40;1.10;;;23.10;99.90;;;;;;6248102;23;20619;-90
2021/07/30 04:33:04;;;;;;;1.60;1.27;;;23.00;99.90;;;;;;6222153;23;20271;-91
2021/07/30 04:35:37;;;;;;;1.50;1.30;;;22.90;99.90;;;;;;6249989;23;20183;-90
2021/07/30 04:38:08;;;;;;;1.27;1.03;;;22.70;99.90;;;;;;6224690;23;20645;-91
2021/07/30 04:40:42;;;;;;;2.80;1.50;;;22.70;99.90;;;;;;6249680;23;20172;-90
2021/07/30 04:43:12;;;;;;;1.30;0.90;;;22.60;99.90;;;;;;6249311;23;20189;-90
2021/07/30 04:45:44;;;;;;;2.03;1.30;;;22.50;99.90;;;;;;6223767;23;20168;-91
2021/07/30 04:48:15;;;;;;;2.33;1.30;;;22.40;99.90;;;;;;6249763;23;20298;-90
2021/07/30 04:50:46;;;;;;;1.63;1.30;;;22.30;99.90;;;;;;6250662;23;20625;-90
2021/07/30 04:53:17;;;;;;;2.03;1.20;;;22.30;99.90;;;;;;6248513;23;20195;-90
2021/07/30 04:55:50;;;;;;;3.07;1.10;;;22.20;99.90;;;;;;6250171;23;20290;-90
2021/07/30 04:58:21;;;;;;;2.53;1.00;;;22.20;99.90;;;;;;6249239;23;20172;-90
2021/07/30 05:00:51;;;;;;;1.23;1.00;;;22.10;99.90;;;;;;6249072;23;20203;-91
2021/07/30 05:03:23;;;;;;;2.30;1.30;;;22.10;99.90;;;;;;6248361;23;20187;-91
2021/07/30 05:05:55;;;;;;;3.43;1.70;;;22.00;99.90;;;;;;6266056;22;20187;-93
2021/07/30 05:08:26;;;;;;;4.47;2.20;;;21.90;99.90;;;;;;6247981;22;20161;-90
2021/07/30 05:10:59;;;;;;;5.13;1.87;;;21.80;99.90;;;;;;6273547;22;20176;-91
2021/07/30 05:13:30;;;;;;;2.37;1.47;;;21.70;99.90;;;;;;6254044;23;20211;-91
2021/07/30 05:16:10;;;;;;;2.60;1.27;;;21.50;99.90;;;;;;6254413;23;20175;-92
2021/07/30 05:18:42;;;;;;;2.90;1.50;;;21.40;99.90;;;;;;6253039;23;20202;-92
2021/07/30 05:21:16;;;;;;;3.97;1.70;;;21.40;99.90;;;;;;6250034;23;20218;-91
2021/07/30 05:23:47;;;;;;;3.20;1.10;;;21.30;99.90;;;;;;6250285;23;20182;-92
2021/07/30 05:26:21;;;;;;;4.70;1.20;;;21.20;99.90;;;;;;6224356;23;20232;-91
2021/07/30 05:28:52;;;;;;;2.07;1.10;;;21.20;99.90;;;;;;6251184;23;20176;-91
2021/07/30 05:31:31;;;;;;;2.00;0.97;;;21.20;99.90;;;;;;6253808;23;20615;-92
2021/07/30 05:34:02;;;;;;;2.00;1.17;;;21.10;99.90;;;;;;6227586;23;20203;-90
2021/07/30 05:36:34;;;;;;;2.70;1.17;;;21.10;99.90;;;;;;6224713;23;20623;-91
2021/07/30 05:39:06;;;;;;;2.73;1.10;;;21.10;99.90;;;;;;6250766;23;20221;-91
2021/07/30 05:41:39;;;;;;;3.97;1.30;;;21.00;99.90;;;;;;6248927;23;20203;-91
2021/07/30 05:44:10;;;;;;;2.30;1.30;;;21.00;99.90;;;;;;6248583;23;20203;-91
2021/07/30 05:46:42;;;;;;;4.03;1.40;;;21.00;99.90;;;;;;6247854;23;20278;-91
2021/07/30 05:49:13;;;;;;;1.63;0.80;;;20.90;99.90;;;;;;6248905;23;20220;-91
2021/07/30 05:51:44;;;;;;;1.80;1.30;;;20.80;99.90;;;;;;6247566;23;20642;-91
2021/07/30 05:54:15;;;;;;;2.00;1.30;;;20.80;99.90;;;;;;6222284;23;20208;-91
2021/07/30 05:56:48;;;;;;;2.63;1.00;;;20.80;99.90;;;;;;6248935;23;20260;-91
2021/07/30 05:59:19;;;;;;;1.30;1.20;;;20.80;99.90;;;;;;6249196;23;20199;-91
2021/07/30 06:01:50;;;;;;;2.83;1.20;;;20.70;99.90;;;;;;6221673;23;20183;-91
2021/07/30 06:04:22;;;;;;;1.43;1.00;;;20.70;99.90;;;;;;6247951;23;20249;-92
2021/07/30 06:06:53;;;;;;;2.03;1.00;;;20.60;99.90;;;;;;6222896;23;20182;-91
2021/07/30 06:09:24;;;;;;;2.20;1.20;;;20.50;99.90;;;;;;6222065;23;20191;-91
2021/07/30 06:11:57;;;;;;;1.30;1.00;;;20.50;99.90;;;;;;6220796;23;20176;-91
2021/07/30 06:14:28;;;;;;;4.03;1.20;;;20.50;99.90;;;;;;6247407;23;20326;-91
2021/07/30 06:17:05;;;;;;;1.80;1.27;;;20.50;99.90;;;;;;6248225;23;20171;-91
2021/07/30 06:19:36;;;;;;;1.33;1.10;;;20.40;99.90;;;;;;6249532;23;20172;-92
2021/07/30 06:22:07;;;;;;;2.50;1.40;;;20.30;99.90;;;;;;6246937;23;20175;-90
2021/07/30 06:24:39;;;;;;;1.80;1.33;;;20.30;99.90;;;;;;6247713;23;20196;-91
2021/07/30 06:27:13;;;;;;;2.67;1.17;;;20.30;99.90;;;;;;6247192;23;20186;-91
2021/07/30 06:29:44;;;;;;;3.10;1.20;;;20.20;99.90;;;;;;6247382;23;20187;-91
2021/07/30 06:32:19;;;;;;;2.00;1.10;;;20.20;99.90;;;;;;6245983;23;20179;-91
2021/07/30 06:34:50;;;;;;;2.77;1.20;;;20.10;99.90;;;;;;6247491;23;20238;-90
2021/07/30 06:37:22;;;;;;;3.87;1.20;;;20.10;99.90;;;;;;6196996;23;20261;-91
2021/07/30 06:39:53;;;;;;;1.67;1.13;;;20.10;99.90;;;;;;6246981;23;20342;-91
2021/07/30 06:42:25;;;;;;;2.80;1.00;;;20.10;99.90;;;;;;6245672;23;20183;-91
2021/07/30 06:44:56;;;;;;;0.90;0.80;;;20.00;99.90;;;;;;6246860;23;20171;-91
2021/07/30 06:47:34;;;;;;;1.77;1.17;;;20.00;99.90;;;;;;6246506;23;20201;-91
2021/07/30 06:50:06;;;;;;;1.40;1.03;;;20.00;99.90;;;;;;6221540;23;20182;-91
2021/07/30 06:52:37;;;;;;;1.83;1.20;;;19.90;99.90;;;;;;6245542;23;20231;-91
2021/07/30 06:55:09;;;;;;;2.00;1.00;;;19.90;99.90;;;;;;6247279;23;20191;-91
2021/07/30 06:57:41;;;;;;;2.23;1.20;;;19.90;99.90;;;;;;6247278;23;20201;-91
2021/07/30 07:00:13;;;;;;;1.53;1.00;;;19.90;99.90;;;;;;6220935;23;20179;-91
2021/07/30 07:02:44;;;;;;;2.77;1.07;;;19.90;99.90;;;;;;6247586;23;20180;-91
2021/07/30 07:05:16;;;;;;;1.47;1.20;;;19.80;99.90;;;;;;6247350;23;20488;-92
2021/07/30 07:07:47;;;;;;;2.33;1.00;;;19.80;99.90;;;;;;6253642;23;20179;-90
2021/07/30 07:10:18;;;;;;;1.70;1.10;;;19.70;99.90;;;;;;6247783;23;20176;-91
2021/07/30 07:12:51;;;;;;;2.23;1.23;;;19.70;99.90;;;;;;6246362;23;20187;-91
2021/07/30 07:15:22;;;;;;;1.93;1.07;;;19.80;99.90;;;;;;6221394;23;20203;-89
2021/07/30 07:17:53;;;;;;;1.63;1.10;;;19.80;99.90;;;;;;6247143;23;20182;-91
2021/07/30 07:20:24;;;;;;;2.77;1.00;;;19.80;99.90;;;;;;6247363;23;20164;-91
2021/07/30 07:22:55;;;;;;;2.03;1.10;;;19.70;99.90;;;;;;6246769;23;20226;-91
2021/07/30 07:25:26;;;;;;;3.13;0.90;;;19.70;99.90;;;;;;6247793;23;20171;-91
2021/07/30 07:27:58;;;;;;;1.60;1.10;;;19.70;99.90;;;;;;6247731;23;20203;-91
2021/07/30 07:30:29;;;;;;;2.90;1.00;;;19.70;99.90;;;;;;6247840;23;20214;-91
2021/07/30 07:33:00;;;;;;;1.20;1.10;;;19.70;99.90;;;;;;6266523;23;20156;-91
2021/07/30 07:35:34;;;;;;;1.80;1.00;;;19.70;99.90;;;;;;6270911;23;20210;-90
2021/07/30 07:38:06;;;;;;;2.13;1.20;;;19.70;99.90;;;;;;6269569;23;20179;-90
2021/07/30 07:40:37;;;;;;;2.80;1.20;;;19.70;99.90;;;;;;6254837;23;20168;-91
2021/07/30 07:43:09;;;;;;;1.10;1.00;;;19.70;99.90;;;;;;6252775;23;20194;-90
2021/07/30 07:45:43;;;;;;;3.93;1.33;;;19.70;99.90;;;;;;6251959;23;20175;-90
2021/07/30 07:48:14;;;;;;;4.80;1.20;;;19.70;99.90;;;;;;6256775;23;20179;-91
2021/07/30 07:50:45;;;;;;;2.10;0.80;;;19.70;99.90;;;;;;6243419;23;20171;-90
2021/07/30 07:53:17;;;;;;;1.20;0.97;;;19.70;99.90;;;;;;6265571;23;20230;-91
2021/07/30 07:55:48;;;;;;;1.80;1.10;;;19.70;99.90;;;;;;6263309;23;20265;-91
2021/07/30 07:58:21;;;;;;;2.30;1.03;;;19.70;99.90;;;;;;6264466;23;20199;-91
2021/07/30 08:00:52;;;;;;;2.03;1.13;;;19.70;99.90;;;;;;6252888;23;20607;-91
2021/07/30 08:03:23;;;;;;;1.37;0.97;;;19.60;99.90;;;;;;6251261;23;20180;-91
2021/07/30 08:05:54;;;;;;;1.37;1.10;;;19.50;99.90;;;;;;6250459;23;20179;-91
2021/07/30 08:08:28;;;;;;;1.57;1.00;;;19.60;99.90;;;;;;6247764;23;20618;-91
2021/07/30 08:10:59;;;;;;;1.83;0.90;;;19.50;99.90;;;;;;6247747;23;20610;-91
2021/07/30 08:13:31;;;;;;;1.90;0.97;;;19.40;99.90;;;;;;6246131;23;20172;-90
2021/07/30 08:16:02;;;;;;;1.70;1.10;;;19.30;99.90;;;;;;6248364;23;20206;-91
2021/07/30 08:18:34;;;;;;;0.93;0.80;;;19.30;99.90;;;;;;6248124;23;20194;-91
2021/07/30 08:21:05;;;;;;;1.53;1.13;;;19.20;99.90;;;;;;6248443;23;20206;-91
2021/07/30 08:23:40;;;;;;;1.50;1.00;;;19.20;99.90;;;;;;6247679;23;20171;-91
2021/07/30 08:26:12;;;;;;;2.17;1.00;;;19.10;99.90;;;;;;6248880;23;20195;-91
2021/07/30 08:28:44;;;;;;;2.93;1.30;;;19.10;99.90;;;;;;6248819;23;20361;-91
2021/07/30 08:31:23;;;;;;;1.23;1.10;;;19.00;99.90;;;;;;6248319;23;20657;-90
2021/07/30 08:33:54;;;;;;;2.53;1.10;;;19.00;99.90;;;;;;6248086;23;20561;-91
2021/07/30 08:36:25;;;;;;;1.77;1.10;;;19.00;99.90;;;;;;6248817;23;20204;-90
2021/07/30 08:38:57;;;;;;;2.47;0.97;;;19.00;99.90;;;;;;6247901;23;20196;-91
2021/07/30 08:41:28;;;;;;;1.00;0.90;;;18.90;99.90;;;;;;6247855;23;20183;-92
2021/07/30 08:44:01;;;;;;;2.10;0.90;;;19.00;99.90;;;;;;6248542;23;20231;-91
2021/07/30 08:46:32;;;;;;;1.70;1.20;;;18.90;99.90;;;;;;6248092;23;20251;-91
2021/07/30 08:49:05;;;;;;;2.93;1.03;;;18.90;99.90;;;;;;6248614;23;20210;-91
2021/07/30 08:51:38;;;;;;;1.33;0.93;;;18.90;99.90;;;;;;6220872;23;20638;-91
2021/07/30 08:54:18;;;;;;;2.20;0.80;;;18.90;99.90;;;;;;6226807;22;20175;-91
2021/07/30 08:56:50;;;;;;;2.63;1.00;;;18.80;99.90;;;;;;6247853;23;20195;-91
2021/07/30 08:59:31;;;;;;;1.33;1.10;;;18.80;99.90;;;;;;6257560;23;20176;-91
2021/07/30 09:02:10;;;;;;;1.87;1.10;;;18.80;99.90;;;;;;6255900;23;20179;-90
2021/07/30 09:04:41;;;;;;;1.80;1.10;;;18.70;99.90;;;;;;6248057;23;20632;-91
2021/07/30 09:07:13;;;;;;;2.40;0.90;;;18.70;99.90;;;;;;6248158;23;20203;-91
2021/07/30 09:09:55;;;;;;;2.10;1.10;;;18.70;99.90;;;;;;6247724;23;20176;-91
2021/07/30 09:12:26;;;;;;;1.37;1.00;;;18.60;99.90;;;;;;6221950;23;20176;-91
2021/07/30 09:14:59;;;;;;;2.03;1.10;;;18.60;99.90;;;;;;6248586;23;20176;-91
2021/07/30 09:17:41;;;;;;;1.43;0.83;;;18.60;99.90;;;;;;6247730;23;20198;-91
2021/07/30 09:20:13;;;;;;;4.03;1.97;;;18.50;99.90;;;;;;6247897;23;20198;-92
2021/07/30 09:22:50;;;;;;;4.83;1.77;;;18.60;99.90;;;;;;6249620;23;20160;-90
2021/07/30 09:25:34;;;;;;;2.90;1.10;;;18.50;99.90;;;;;;6248460;23;20202;-90
2021/07/30 09:28:06;;;;;;;1.47;1.00;;;18.50;99.90;;;;;;6247705;23;20191;-90
2021/07/30 09:30:40;;;;;;;1.40;1.00;;;18.50;99.90;;;;;;6248085;23;20187;-90
2021/07/30 09:33:11;;;;;;;1.13;1.00;;;18.50;99.90;;;;;;6221278;23;20194;-89
2021/07/30 09:36:00;;;;;;;1.07;0.93;;;18.50;99.90;;;;;;6250174;23;20226;-90
2021/07/30 09:38:32;;;;;;;1.60;0.90;;;18.40;99.90;;;;;;6251645;23;20670;-90
2021/07/30 09:41:15;;;;;;;1.33;1.10;;;18.40;99.90;;;;;;6250205;23;20896;-89
2021/07/30 09:43:47;;;;;;;1.73;1.10;;;18.40;99.90;;;;;;6221697;23;20191;-89
2021/07/30 09:46:20;;;;;;;1.40;1.00;;;18.40;99.90;;;;;;6248983;23;20164;-90
2021/07/30 09:48:54;;;;;;;3.27;0.83;;;18.40;99.90;;;;;;6249971;23;20179;-89
2021/07/30 09:51:26;;;;;;;2.40;1.00;;;18.40;99.90;;;;;;6247746;23;20196;-92
2021/07/30 09:53:58;;;;;;;2.43;1.00;;;18.30;99.90;;;;;;6247794;23;20208;-90
2021/07/30 09:56:30;;;;;;;2.30;0.93;;;18.30;99.90;;;;;;6248880;23;20198;-89
2021/07/30 09:59:02;;;;;;;2.83;0.90;;;18.30;99.90;;;;;;6248722;23;20179;-90
2021/07/30 10:01:36;;;;;;;2.73;1.10;;;18.30;99.90;;;;;;6248297;23;20645;-90
2021/07/30 10:04:08;;;;;;;2.60;1.43;;;18.20;99.90;;;;;;6264129;23;20205;-90
2021/07/30 10:06:38;;;;;;;1.73;1.00;;;18.20;99.90;;;;;;6272258;23;20168;-90
2021/07/30 10:09:11;;;;;;;1.70;1.20;;;18.20;99.90;;;;;;6271657;22;20175;-91
2021/07/30 10:11:42;;;;;;;2.27;1.00;;;18.10;99.90;;;;;;6252559;23;20196;-90
2021/07/30 10:14:13;;;;;;;1.03;0.90;;;18.10;99.90;;;;;;6249534;23;20220;-90
2021/07/30 10:16:59;;;;;;;1.83;0.97;;;18.10;99.90;;;;;;6248071;23;20729;-89
2021/07/30 10:19:31;;;;;;;1.40;1.00;;;18.10;99.90;;;;;;6248532;23;20685;-90
2021/07/30 10:22:07;;;;;;;5.17;1.23;;;18.10;99.90;;;;;;6248193;23;20190;-90
2021/07/30 10:24:53;;;;;;;2.23;1.10;;;18.00;99.90;;;;;;6222096;23;20200;-90
2021/07/30 10:27:27;;;;;;;1.67;1.13;;;18.00;99.90;;;;;;6247928;23;20254;-90
2021/07/30 10:30:10;;;;;;;1.13;0.90;;;18.00;99.90;;;;;;6247785;23;20163;-91
2021/07/30 10:32:57;;;;;;;1.20;1.00;;;18.00;99.90;;;;;;6246336;23;20182;-90
2021/07/30 10:35:47;;;;;;;1.50;1.10;;;17.90;99.90;;;;;;6245025;23;20181;-91
2021/07/30 10:38:24;;;;;;;4.07;1.10;;;17.90;99.90;;;;;;6247354;23;20221;-90
2021/07/30 10:41:22;;;;;;;1.30;1.00;;;17.90;99.90;;;;;;6247509;23;20175;-90
2021/07/30 10:44:11;;;;;;;1.57;1.40;;;17.90;99.90;;;;;;6155241;23;20187;-90
2021/07/30 10:46:42;;;;;;;3.73;1.20;;;17.80;99.90;;;;;;6247710;23;20172;-90
2021/07/30 10:49:42;;;;;;;1.93;1.40;;;17.80;99.90;;;;;;6247581;23;20172;-90
2021/07/30 10:52:30;;;;;;;1.93;0.97;;;17.70;99.90;;;;;;6236172;23;20183;-90
2021/07/30 10:55:03;;;;;;;2.70;1.30;;;17.70;99.90;;;;;;6248083;23;20172;-88
2021/07/30 10:57:56;;;;;;;4.23;1.10;;;17.70;99.90;;;;;;6250150;23;20195;-90
2021/07/30 11:00:54;;;;;;;3.53;1.40;;;17.60;99.90;;;;;;6247620;23;20195;-90
2021/07/30 11:03:26;;;;;;;4.37;1.17;;;17.60;99.90;;;;;;6245726;23;20195;-90
2021/07/30 11:06:14;;;;;;;5.43;1.23;;;17.70;99.90;;;;;;6247362;23;20274;-90
2021/07/30 11:09:21;;;;;;;1.83;1.20;;;17.60;99.90;;;;;;6198676;23;20164;-90
2021/07/30 11:11:53;;;;;;;2.83;1.20;;;17.60;99.90;;;;;;6245522;23;20203;-90
2021/07/30 11:14:26;;;;;;;2.47;0.97;;;17.60;99.90;;;;;;6246779;23;20231;-90
2021/07/30 11:16:58;;;;;;;1.83;1.17;;;17.60;99.90;;;;;;6246241;23;20203;-90
2021/07/30 11:19:30;;;;;;;2.10;1.40;;;17.60;99.90;;;;;;6247485;23;20180;-90
2021/07/30 11:22:05;;;;;;;2.27;1.00;;;17.60;99.90;;;;;;6245984;23;20202;-90
2021/07/30 11:24:42;;;;;;;1.70;1.20;;;17.60;99.90;;;;;;6247310;23;20179;-90
2021/07/30 11:27:15;;;;;;;2.07;1.30;;;17.50;99.90;;;;;;6247341;23;20186;-90
2021/07/30 11:29:47;;;;;;;1.20;1.10;;;17.50;99.90;;;;;;6247271;23;20609;-90
2021/07/30 11:32:19;;;;;;;5.03;1.20;;;17.50;99.90;;;;;;6246137;23;20168;-90
2021/07/30 11:34:51;;;;;;;3.27;1.00;;;17.50;99.90;;;;;;6246815;23;20176;-90
2021/07/30 11:37:28;;;;;;;2.43;1.20;;;17.50;99.90;;;;;;6246749;23;20257;-90
2021/07/30 11:40:01;;;;;;;3.20;1.30;;;17.50;99.90;;;;;;6246966;23;20183;-89
2021/07/30 11:42:34;;;;;;;1.93;1.10;;;17.40;99.90;;;;;;6245929;23;20615;-89
2021/07/30 11:45:07;;;;;;;1.00;0.90;;;17.50;99.90;;;;;;6252601;23;20160;-89
2021/07/30 11:47:39;;;;;;;1.27;1.10;;;17.40;99.90;;;;;;6258714;23;20235;-89
2021/07/30 11:50:12;;;;;;;1.97;1.20;;;17.40;99.90;;;;;;6263820;23;20194;-87
2021/07/30 11:52:46;;;;;;;2.63;1.20;;;17.40;99.90;;;;;;6252462;23;20603;-89
2021/07/30 11:55:19;;;;;;;6.17;1.30;;;17.30;99.90;;;;;;6250167;23;20533;-90
2021/07/30 11:57:51;;;;;;;2.80;1.30;;;17.30;99.90;;;;;;6250782;23;20199;-90
2021/07/30 12:00:27;;;;;;;3.67;1.40;;;17.20;99.90;;;;;;6249728;23;20175;-90
2021/07/30 12:02:58;;;;;;;5.63;1.50;;;17.10;99.90;;;;;;6248149;23;20245;-90
2021/07/30 12:05:34;;;;;;;2.03;1.47;;;17.10;99.90;;;;;;6249084;23;20164;-90
2021/07/30 12:08:09;;;;;;;3.97;1.23;;;17.10;99.90;;;;;;6249079;23;20543;-90
2021/07/30 12:10:41;;;;;;;2.23;1.40;;;17.00;99.90;;;;;;6249032;23;20171;-90
2021/07/30 12:13:13;;;;;;;3.77;1.20;;;17.00;99.90;;;;;;6222197;23;20215;-90
2021/07/30 12:15:44;;;;;;;3.57;1.30;;;16.90;99.90;;;;;;6249257;23;20212;-90
2021/07/30 12:18:16;;;;;;;4.80;1.30;;;16.80;99.90;;;;;;6250140;23;20203;-89
2021/07/30 12:20:48;;;;;;;4.17;1.20;;;16.80;99.90;;;;;;6249019;23;20709;-90
2021/07/30 12:23:21;;;;;;;2.97;1.40;;;16.70;99.90;;;;;;6248597;23;20168;-90
2021/07/30 12:25:53;;;;;;;3.57;1.57;;;16.70;99.90;;;;;;6259669;22;20164;-90
2021/07/30 12:28:27;;;;;;;3.00;1.40;;;16.70;99.90;;;;;;6274104;22;20163;-90
2021/07/30 12:30:58;;;;;;;1.70;1.27;;;16.70;99.90;;;;;;6273838;22;20281;-89
2021/07/30 12:33:30;;;;;;;5.97;1.20;;;16.70;99.90;;;;;;6255857;22;20178;-89
2021/07/30 12:36:08;;;;;;;3.20;1.47;;;16.70;99.90;;;;;;6252619;23;20176;-90
2021/07/30 12:38:57;;;;;;;2.57;1.50;;;16.70;99.90;;;;;;6249034;23;20187;-89
2021/07/30 12:41:30;;;;;;;5.37;1.60;;;16.70;99.90;;;;;;6247771;23;20242;-90
2021/07/30 12:44:11;;;;;;;3.50;1.53;;;16.70;99.90;;;;;;6223810;23;20263;-90
2021/07/30 12:46:43;;;;;;;3.27;1.70;;;16.70;99.90;;;;;;6222448;23;20194;-89
2021/07/30 12:49:15;;;;;;;3.07;1.40;;;16.70;99.90;;;;;;6248926;23;20160;-89
2021/07/30 12:51:46;;;;;;;3.17;1.40;;;16.70;99.90;;;;;;6247559;23;20229;-89
2021/07/30 12:54:20;;;;;;;4.37;1.63;;;16.70;99.90;;;;;;6249522;23;20199;-89
2021/07/30 12:57:05;;;;;;;4.27;1.50;;;16.70;99.90;;;;;;6249782;23;20642;-90
2021/07/30 12:59:53;;;;;;;3.23;1.57;;;16.70;99.90;;;;;;6249394;23;20163;-91
2021/07/30 13:02:26;;;;;;;4.07;1.67;;;16.70;99.90;;;;;;6247763;23;20513;-90
2021/07/30 13:04:58;;;;;;;3.27;1.50;;;16.70;99.90;;;;;;6249751;23;20672;-90
2021/07/30 13:07:30;;;;;;;3.10;1.60;;;16.70;99.90;;;;;;6250355;23;20172;-90
2021/07/30 13:10:04;;;;;;;3.90;1.80;;;16.70;99.90;;;;;;6250756;23;20198;-89
2021/07/30 13:12:35;;;;;;;2.60;1.60;;;16.80;99.90;;;;;;6251363;23;20183;-90
2021/07/30 13:15:07;;;;;;;2.60;1.27;;;16.80;99.90;;;;;;6233731;23;20174;-90
2021/07/30 13:17:38;;;;;;;2.03;1.50;;;16.90;99.90;;;;;;6271889;23;20207;-91
2021/07/30 13:20:10;;;;;;;1.87;1.47;;;16.90;99.90;;;;;;6271979;23;20168;-90
2021/07/30 13:22:42;;;;;;;3.87;1.43;;;16.90;99.90;;;;;;6266319;23;20168;-89